Time;durP1;ratioP1;P1;durP2;ratioP2;P2;SDS_P1;SDS_P2;PMS_P1;PMS_P2;Temp;Humidity;BMP_temperature;BMP_pressure;BME280_temperature;BME280_humidity;BME280_pressure;Samples;Min_cycle;Max_cycle;Signal;HPM_P1;HPM_P2
2022/07/02 00:00:50;;;;;;;1.3;1.2;;;;;;;13.61;97.57715;944.5366;;;;
2022/07/02 00:03:25;;;;;;;1.5;1;;;;;;;13.54;97.36816;944.5176;;;;
2022/07/02 00:05:58;;;;;;;1.2;1.1;;;;;;;13.49;97.67773;944.5821;;;;
2022/07/02 00:08:27;;;;;;;1.8;1.2;;;;;;;13.48;97.01074;944.6174;;;;
2022/07/02 00:10:53;;;;;;;1.9;1.5;;;;;;;13.49;96.89551;944.5989;;;;
2022/07/02 00:13:25;;;;;;;1.3;1.2;;;;;;;13.45;97.32422;944.589;;;;
2022/07/02 00:15:51;;;;;;;1.6;1.5;;;;;;;13.5;97.15234;944.6566;;;;
2022/07/02 00:18:16;;;;;;;2.3;1.5;;;;;;;13.52;96.56836;944.6384;;;;
2022/07/02 00:20:45;;;;;;;1.5;1.4;;;;;;;13.43;96.74609;944.5344;;;;
2022/07/02 00:23:12;;;;;;;2.9;1.4;;;;;;;13.14;98.42578;944.6428;;;;
2022/07/02 00:25:37;;;;;;;2.3;1.6;;;;;;;13.13;98.60938;944.6771;;;;
2022/07/02 00:28:02;;;;;;;2.2;1.5;;;;;;;13.07;98.49414;944.7014;;;;
2022/07/02 00:30:29;;;;;;;1.5;1.4;;;;;;;13.08;98.82715;944.7278;;;;
2022/07/02 00:32:54;;;;;;;1.4;1.3;;;;;;;13.1;98.34863;944.7328;;;;
2022/07/02 00:35:21;;;;;;;2.6;1.6;;;;;;;13.01;98.61523;944.7484;;;;
2022/07/02 00:37:48;;;;;;;1.4;1.3;;;;;;;12.9;99.02637;944.7336;;;;
2022/07/02 00:40:13;;;;;;;1.6;1.4;;;;;;;12.85;99.32617;944.6947;;;;
2022/07/02 00:42:43;;;;;;;1.9;1.4;;;;;;;12.88;99.22754;944.675;;;;
2022/07/02 00:45:08;;;;;;;1.7;1.6;;;;;;;12.65;99.99023;944.7106;;;;
2022/07/02 00:47:35;;;;;;;1.3;1.2;;;;;;;12.73;99.75684;944.7162;;;;
2022/07/02 00:50:00;;;;;;;1.5;1.4;;;;;;;12.71;99.32813;944.6912;;;;
2022/07/02 00:52:26;;;;;;;2;1.2;;;;;;;12.62;99.55957;944.6758;;;;
2022/07/02 00:54:51;;;;;;;1.6;1.3;;;;;;;12.62;99.58301;944.7413;;;;
2022/07/02 00:57:18;;;;;;;1.3;1.2;;;;;;;12.62;99.30762;944.7517;;;;
2022/07/02 00:59:44;;;;;;;2;1.2;;;;;;;12.58;99.45996;944.7047;;;;
2022/07/02 01:02:08;;;;;;;1.6;1.5;;;;;;;12.43;100;944.7156;;;;
2022/07/02 01:04:35;;;;;;;1.1;1.1;;;;;;;12.6;99.41797;944.7177;;;;
2022/07/02 01:07:00;;;;;;;1.9;1.1;;;;;;;12.55;99.57715;944.6834;;;;
2022/07/02 01:11:54;;;;;;;1.3;1.2;;;;;;;12.44;99.80469;944.5959;;;;
2022/07/02 01:14:20;;;;;;;1.1;1;;;;;;;12.5;99.32617;944.5614;;;;
2022/07/02 01:16:47;;;;;;;0.9;0.9;;;;;;;12.32;99.51465;944.4991;;;;
2022/07/02 01:19:12;;;;;;;2.1;1.1;;;;;;;12.23;100;944.5458;;;;
2022/07/02 01:21:39;;;;;;;1.3;1.2;;;;;;;12.26;100;944.4886;;;;
2022/07/02 01:24:08;;;;;;;1.3;1.2;;;;;;;12.25;100;944.5037;;;;
2022/07/02 01:26:33;;;;;;;1.1;1;;;;;;;12.18;100;944.5121;;;;
2022/07/02 01:29:01;;;;;;;2.3;1.5;;;;;;;12.16;100;944.4879;;;;
2022/07/02 01:31:26;;;;;;;1.3;1.2;;;;;;;12.16;100;944.4024;;;;
2022/07/02 01:33:52;;;;;;;1;1;;;;;;;12.05;100;944.3611;;;;
2022/07/02 01:36:17;;;;;;;1.4;1.1;;;;;;;12.14;100;944.3407;;;;
2022/07/02 01:38:48;;;;;;;1.5;1.3;;;;;;;12.27;99.11426;944.3164;;;;
2022/07/02 01:43:40;;;;;;;1.2;1;;;;;;;12.15;99.17676;944.4143;;;;
2022/07/02 01:46:05;;;;;;;1;0.9;;;;;;;11.96;99.87793;944.4011;;;;
2022/07/02 01:48:30;;;;;;;2.5;1.2;;;;;;;11.8;100;944.4958;;;;
2022/07/02 01:50:55;;;;;;;1.2;1.1;;;;;;;11.78;100;944.4753;;;;
2022/07/02 01:53:28;;;;;;;2.3;1.2;;;;;;;11.77;100;944.519;;;;
2022/07/02 01:55:54;;;;;;;2.2;0.9;;;;;;;11.71;100;944.5126;;;;
2022/07/02 01:58:20;;;;;;;1;0.9;;;;;;;11.57;100;944.4933;;;;
2022/07/02 02:00:48;;;;;;;0.8;0.8;;;;;;;11.52;100;944.5485;;;;
2022/07/02 02:03:13;;;;;;;0.8;0.8;;;;;;;11.69;100;944.4597;;;;
2022/07/02 02:05:43;;;;;;;1.8;0.9;;;;;;;11.77;100;944.5876;;;;
2022/07/02 02:08:08;;;;;;;0.6;0.6;;;;;;;11.79;100;944.5595;;;;
2022/07/02 02:10:35;;;;;;;1.5;0.8;;;;;;;11.67;100;944.5471;;;;
2022/07/02 02:13:00;;;;;;;1.1;0.7;;;;;;;11.81;100;944.5339;;;;
2022/07/02 02:15:33;;;;;;;0.8;0.8;;;;;;;11.94;100;944.5485;;;;
2022/07/02 02:17:58;;;;;;;1.2;0.8;;;;;;;11.94;99.30176;944.5549;;;;
2022/07/02 02:20:23;;;;;;;0.7;0.7;;;;;;;11.87;99.52539;944.5227;;;;
2022/07/02 02:22:48;;;;;;;1;0.9;;;;;;;11.75;100;944.4717;;;;
2022/07/02 02:25:20;;;;;;;0.8;0.8;;;;;;;11.8;99.38477;944.515;;;;
2022/07/02 02:27:47;;;;;;;0.8;0.8;;;;;;;11.8;99.06445;944.5111;;;;
2022/07/02 02:30:12;;;;;;;1;0.9;;;;;;;11.81;98.73438;944.4317;;;;
2022/07/02 02:32:40;;;;;;;1.5;0.8;;;;;;;11.66;99.41797;944.4663;;;;
2022/07/02 02:35:05;;;;;;;0.8;0.8;;;;;;;11.6;99.69238;944.4683;;;;
2022/07/02 02:37:35;;;;;;;1;1;;;;;;;11.51;100;944.4677;;;;
2022/07/02 02:40:11;;;;;;;2.1;1;;;;;;;11.59;100;944.4658;;;;
2022/07/02 02:42:39;;;;;;;0.9;0.9;;;;;;;11.62;99.79883;944.4705;;;;
2022/07/02 02:45:04;;;;;;;1;1;;;;;;;11.51;100;944.4774;;;;
2022/07/02 02:47:36;;;;;;;0.9;0.9;;;;;;;11.39;100;944.448;;;;
2022/07/02 02:50:07;;;;;;;1.2;1.1;;;;;;;11.27;100;944.4238;;;;
2022/07/02 02:52:32;;;;;;;2.4;0.9;;;;;;;11.36;100;944.4507;;;;
2022/07/02 02:55:00;;;;;;;1;0.9;;;;;;;11.36;100;944.4197;;;;
2022/07/02 02:57:28;;;;;;;1.1;0.8;;;;;;;11.36;100;944.4341;;;;
2022/07/02 02:59:56;;;;;;;0.8;0.8;;;;;;;11.24;100;944.4807;;;;
2022/07/02 03:02:20;;;;;;;2.5;1.3;;;;;;;11.2;100;944.4534;;;;
2022/07/02 03:04:47;;;;;;;2;1.1;;;;;;;11.19;100;944.4213;;;;
2022/07/02 03:07:12;;;;;;;1.4;1.2;;;;;;;11.13;100;944.4689;;;;
2022/07/02 03:09:39;;;;;;;1.5;1.1;;;;;;;11.28;100;944.4637;;;;
2022/07/02 03:12:04;;;;;;;1.6;1.3;;;;;;;11.26;100;944.4673;;;;
2022/07/02 03:14:29;;;;;;;3.4;1.7;;;;;;;11.09;100;944.4961;;;;
2022/07/02 03:16:55;;;;;;;1.6;1.4;;;;;;;11.08;100;944.4856;;;;
2022/07/02 03:19:21;;;;;;;1;0.9;;;;;;;11.12;100;944.5046;;;;
2022/07/02 03:21:46;;;;;;;1.1;1;;;;;;;11.12;100;944.4567;;;;
2022/07/02 03:24:13;;;;;;;1.6;0.8;;;;;;;10.91;100;944.4752;;;;
2022/07/02 03:26:38;;;;;;;1.1;1;;;;;;;11.06;100;944.5347;;;;
2022/07/02 03:29:05;;;;;;;1;0.9;;;;;;;11.05;100;944.4963;;;;
2022/07/02 03:31:32;;;;;;;2.1;1;;;;;;;11.23;100;944.5291;;;;
2022/07/02 03:33:59;;;;;;;1.5;1;;;;;;;11.23;99.98633;944.5284;;;;
2022/07/02 03:36:24;;;;;;;1.1;0.9;;;;;;;11.23;100;944.545;;;;
2022/07/02 03:38:53;;;;;;;1.1;1;;;;;;;11.36;99.22461;944.5503;;;;
2022/07/02 03:41:18;;;;;;;1.4;0.9;;;;;;;11.13;100;944.5447;;;;
2022/07/02 03:43:45;;;;;;;0.9;0.9;;;;;;;11.29;100;944.6401;;;;
2022/07/02 03:46:10;;;;;;;0.9;0.9;;;;;;;11.29;99.86133;944.6266;;;;
2022/07/02 03:48:40;;;;;;;1.4;1;;;;;;;11.32;99.57031;944.6302;;;;
2022/07/02 03:51:10;;;;;;;1;0.9;;;;;;;11.41;99.31641;944.5719;;;;
2022/07/02 03:53:35;;;;;;;1.3;0.9;;;;;;;11.47;98.77051;944.7008;;;;
2022/07/02 03:56:05;;;;;;;1.7;0.9;;;;;;;11.47;98.9082;944.6594;;;;
2022/07/02 03:58:30;;;;;;;0.8;0.8;;;;;;;11.42;98.18848;944.6426;;;;
2022/07/02 04:02:40;;;;;;;1.1;1;;;;;;;11.17;98.73438;944.6912;;;;
2022/07/02 04:05:05;;;;;;;1.8;0.8;;;;;;;11.11;98.91699;944.7188;;;;
2022/07/02 04:07:35;;;;;;;0.9;0.9;;;;;;;11.18;99.35645;944.7814;;;;
2022/07/02 04:10:02;;;;;;;0.8;0.8;;;;;;;11.23;98.58691;944.7283;;;;
2022/07/02 04:12:27;;;;;;;1.4;0.9;;;;;;;11.26;99.06445;944.697;;;;
2022/07/02 04:14:55;;;;;;;1.5;1.1;;;;;;;11.28;98.54199;944.6089;;;;
2022/07/02 04:17:20;;;;;;;0.7;0.7;;;;;;;11.23;98.63477;944.6231;;;;
2022/07/02 04:19:49;;;;;;;1.3;1.1;;;;;;;11.29;98.21484;944.6384;;;;
2022/07/02 04:22:14;;;;;;;2.1;0.9;;;;;;;11.25;97.79492;944.5956;;;;
2022/07/02 04:24:42;;;;;;;1.3;0.8;;;;;;;11.34;97.12891;944.6051;;;;
2022/07/02 04:27:08;;;;;;;1.1;0.9;;;;;;;11.38;97.09082;944.6736;;;;
2022/07/02 04:29:38;;;;;;;2.5;1;;;;;;;11.49;96.71289;944.5894;;;;
2022/07/02 04:32:03;;;;;;;1.1;0.8;;;;;;;11.41;97.25781;944.5942;;;;
2022/07/02 04:34:29;;;;;;;3.7;1.2;;;;;;;11.48;96.75684;944.6746;;;;
2022/07/02 04:36:54;;;;;;;2.5;2.2;;;;;;;11.42;96.83789;944.6522;;;;
2022/07/02 04:39:21;;;;;;;5.3;3.6;;;;;;;11.31;96.38867;944.6524;;;;
2022/07/02 04:41:46;;;;;;;3;2.5;;;;;;;11.14;97.33594;944.6851;;;;
2022/07/02 04:44:16;;;;;;;4.5;4.1;;;;;;;11.11;98.32227;944.6886;;;;
2022/07/02 04:46:41;;;;;;;5.5;5;;;;;;;11.21;98.04785;944.6895;;;;
2022/07/02 04:49:09;;;;;;;4.7;4.3;;;;;;;11.28;97.58105;944.6583;;;;
2022/07/02 04:51:34;;;;;;;16.1;14.5;;;;;;;11.2;97.66797;944.6861;;;;
2022/07/02 04:54:01;;;;;;;17.8;16;;;;;;;11.23;97.75391;944.6694;;;;
2022/07/02 04:56:27;;;;;;;19.1;17.1;;;;;;;11.3;97.67871;944.61;;;;
2022/07/02 04:58:54;;;;;;;26.9;24.1;;;;;;;11.3;97.64453;944.6617;;;;
2022/07/02 05:01:19;;;;;;;21.7;19.4;;;;;;;11.39;97.99512;944.6777;;;;
2022/07/02 05:03:48;;;;;;;16.2;14.4;;;;;;;11.52;97.5127;944.6386;;;;
2022/07/02 05:06:13;;;;;;;17.4;13.6;;;;;;;11.77;100;944.614;;;;
2022/07/02 05:08:42;;;;;;;6.9;6.2;;;;;;;13.27;96.99707;944.6375;;;;
2022/07/02 05:11:07;;;;;;;3.8;2.9;;;;;;;14.71;86.26367;944.6412;;;;
2022/07/02 05:13:34;;;;;;;2;1.8;;;;;;;16.28;78.50879;944.5726;;;;
2022/07/02 05:16:06;;;;;;;1.3;1.2;;;;;;;17.21;73.78125;944.4375;;;;
2022/07/02 05:18:36;;;;;;;0.8;0.7;;;;;;;17.84;70.70898;944.506;;;;
2022/07/02 05:21:01;;;;;;;0.6;0.6;;;;;;;17.64;71.65039;944.5287;;;;
2022/07/02 05:23:27;;;;;;;1.3;0.7;;;;;;;18.18;70.00781;944.5266;;;;
2022/07/02 05:25:52;;;;;;;1.3;0.7;;;;;;;18.48;68.71777;944.5208;;;;
2022/07/02 05:28:19;;;;;;;0.5;0.5;;;;;;;18.65;67.34863;944.5535;;;;
2022/07/02 05:30:44;;;;;;;0.6;0.5;;;;;;;18.79;66.32227;944.4961;;;;
2022/07/02 05:33:10;;;;;;;1;0.4;;;;;;;19.76;63.22559;944.5069;;;;
2022/07/02 05:35:35;;;;;;;0.4;0.4;;;;;;;19.54;64.81641;944.4614;;;;
2022/07/02 05:38:04;;;;;;;0.3;0.3;;;;;;;19.47;64.86426;944.3749;;;;
2022/07/02 05:40:29;;;;;;;0.8;0.4;;;;;;;20.42;62.12988;944.4003;;;;
2022/07/02 05:43:01;;;;;;;0.5;0.5;;;;;;;21.38;59.07031;944.4034;;;;
2022/07/02 05:45:29;;;;;;;0.6;0.6;;;;;;;21.83;56.8916;944.3412;;;;
2022/07/02 05:47:54;;;;;;;0.7;0.5;;;;;;;22.31;55.14746;944.3517;;;;
2022/07/02 05:50:22;;;;;;;2.5;0.6;;;;;;;22.39;54.93359;944.3668;;;;
2022/07/02 05:52:47;;;;;;;0.4;0.4;;;;;;;22.82;53.44824;944.3259;;;;
2022/07/02 05:55:16;;;;;;;0.4;0.4;;;;;;;22.42;54.03516;944.2903;;;;
2022/07/02 05:57:41;;;;;;;2;0.5;;;;;;;22.65;55.21289;944.2076;;;;
2022/07/02 06:00:09;;;;;;;1.4;0.4;;;;;;;22.49;54.13672;944.2004;;;;
2022/07/02 06:02:40;;;;;;;0.9;0.5;;;;;;;22.39;54.7334;944.2272;;;;
2022/07/02 06:07:38;;;;;;;0.5;0.4;;;;;;;23.33;52.57031;944.2573;;;;
2022/07/02 06:07:42;;;;;;;0.4;0.4;;;;;;;23.39;51.8252;944.223;;;;
2022/07/02 06:09:55;;;;;;;1.5;0.5;;;;;;;23.01;52.61426;944.2403;;;;
2022/07/02 06:12:22;;;;;;;1.1;0.6;;;;;;;23.08;53.79785;944.2092;;;;
2022/07/02 06:14:47;;;;;;;1.1;0.5;;;;;;;23.46;52.12598;944.2042;;;;
2022/07/02 06:17:15;;;;;;;0.8;0.6;;;;;;;23.46;50.30469;944.182;;;;
2022/07/02 06:19:42;;;;;;;0.5;0.5;;;;;;;23.58;50.79883;944.1795;;;;
2022/07/02 06:22:05;;;;;;;0.8;0.6;;;;;;;23.75;50.01953;944.1313;;;;
2022/07/02 06:24:32;;;;;;;0.5;0.5;;;;;;;23.63;51.28906;944.1813;;;;
2022/07/02 06:26:58;;;;;;;0.4;0.4;;;;;;;23.65;50.51465;944.1135;;;;
2022/07/02 06:29:26;;;;;;;0.5;0.5;;;;;;;24.86;48.20898;944.1164;;;;
2022/07/02 06:31:51;;;;;;;0.4;0.4;;;;;;;25.43;45.9209;944.11;;;;
2022/07/02 06:34:20;;;;;;;0.4;0.4;;;;;;;25.53;47.08789;944.0964;;;;
2022/07/02 06:36:51;;;;;;;0.4;0.4;;;;;;;27.19;41.99902;944.0269;;;;
2022/07/02 06:39:23;;;;;;;0.2;0.2;;;;;;;27.11;43.02246;944.0061;;;;
2022/07/02 06:44:20;;;;;;;1.1;0.5;;;;;;;27.53;42.49414;944.0394;;;;
2022/07/02 06:46:52;;;;;;;0.6;0.5;;;;;;;27.3;41.98438;943.9824;;;;
2022/07/02 06:49:23;;;;;;;0.7;0.5;;;;;;;25.98;44.20215;944.0236;;;;
2022/07/02 06:51:54;;;;;;;0.7;0.6;;;;;;;25.68;44.68164;944.0094;;;;
2022/07/02 06:54:23;;;;;;;0.6;0.6;;;;;;;25.04;45.58496;944.0012;;;;
2022/07/02 06:56:48;;;;;;;0.6;0.6;;;;;;;25.84;43.11328;944.0488;;;;
2022/07/02 06:59:16;;;;;;;0.5;0.5;;;;;;;26.06;46.86035;943.9993;;;;
2022/07/02 07:01:41;;;;;;;0.4;0.4;;;;;;;27.06;42.46094;943.9879;;;;
2022/07/02 07:04:08;;;;;;;0.8;0.6;;;;;;;27.31;44.1084;943.9763;;;;
2022/07/02 07:06:34;;;;;;;0.6;0.5;;;;;;;28.66;39.62598;943.9631;;;;
2022/07/02 07:08:59;;;;;;;1;0.7;;;;;;;28.48;38.71875;943.921;;;;
2022/07/02 07:11:24;;;;;;;0.7;0.6;;;;;;;27.52;40.17773;943.9158;;;;
2022/07/02 07:13:53;;;;;;;1;0.5;;;;;;;27.87;41.51563;943.9368;;;;
2022/07/02 07:16:19;;;;;;;0.4;0.4;;;;;;;29.07;38.79297;943.8416;;;;
2022/07/02 07:18:50;;;;;;;0.7;0.7;;;;;;;29.82;39.7998;943.832;;;;
2022/07/02 07:21:20;;;;;;;0.5;0.5;;;;;;;30.04;37.49219;943.8519;;;;
2022/07/02 07:23:48;;;;;;;0.4;0.4;;;;;;;29.3;38.03809;943.7671;;;;
2022/07/02 07:26:13;;;;;;;0.8;0.7;;;;;;;31.02;36.16211;943.7665;;;;
2022/07/02 07:28:39;;;;;;;0.5;0.5;;;;;;;31.14;35.2627;943.7267;;;;
2022/07/02 07:31:08;;;;;;;0.9;0.5;;;;;;;31.79;33.50488;943.6872;;;;
2022/07/02 07:33:33;;;;;;;0.4;0.4;;;;;;;29.32;34.89453;943.6951;;;;
2022/07/02 07:36:01;;;;;;;0.4;0.4;;;;;;;29.04;36.11133;943.6861;;;;
2022/07/02 07:38:28;;;;;;;2;0.4;;;;;;;28.91;37.83887;943.6939;;;;
2022/07/02 07:40:52;;;;;;;0.4;0.4;;;;;;;28.95;36.6748;943.6812;;;;
2022/07/02 07:43:20;;;;;;;1.1;0.4;;;;;;;29.65;35.83789;943.6484;;;;
2022/07/02 07:45:46;;;;;;;0.8;0.4;;;;;;;30.07;36.56348;943.634;;;;
2022/07/02 07:48:13;;;;;;;0.7;0.5;;;;;;;31.02;33.36328;943.6633;;;;
2022/07/02 07:50:38;;;;;;;0.4;0.4;;;;;;;32.25;31.53613;943.5981;;;;
2022/07/02 07:53:07;;;;;;;1;0.5;;;;;;;32.25;31.44043;943.58;;;;
2022/07/02 07:55:33;;;;;;;0.4;0.4;;;;;;;29.51;35.67285;943.5911;;;;
2022/07/02 07:57:59;;;;;;;0.4;0.4;;;;;;;28.68;36.60547;943.6129;;;;
2022/07/02 08:00:25;;;;;;;0.5;0.5;;;;;;;29.73;36.03418;943.6086;;;;
2022/07/02 08:02:52;;;;;;;0.5;0.5;;;;;;;31.31;33.78027;943.5956;;;;
2022/07/02 08:05:17;;;;;;;0.9;0.5;;;;;;;30.93;34.66016;943.5916;;;;
2022/07/02 08:07:45;;;;;;;0.5;0.5;;;;;;;30.41;33.92773;943.5731;;;;
2022/07/02 08:10:10;;;;;;;1.3;0.4;;;;;;;27.92;37.63672;943.5184;;;;
2022/07/02 08:12:38;;;;;;;0.5;0.5;;;;;;;29.14;38.73828;943.522;;;;
2022/07/02 08:15:03;;;;;;;0.4;0.4;;;;;;;30.28;35.90039;943.5002;;;;
2022/07/02 08:17:29;;;;;;;1.3;0.6;;;;;;;30.41;34.76367;943.5386;;;;
2022/07/02 08:19:55;;;;;;;0.5;0.4;;;;;;;29.16;35.83398;943.4807;;;;
2022/07/02 08:22:21;;;;;;;0.5;0.5;;;;;;;28.62;36.54199;943.5017;;;;
2022/07/02 08:24:48;;;;;;;0.4;0.4;;;;;;;31.29;32.33105;943.4752;;;;
2022/07/02 08:27:13;;;;;;;0.5;0.5;;;;;;;31.45;32.40137;943.4325;;;;
2022/07/02 08:29:41;;;;;;;0.4;0.4;;;;;;;31.85;33.56934;943.3506;;;;
2022/07/02 08:32:07;;;;;;;0.4;0.4;;;;;;;33.51;30.30078;943.3254;;;;
2022/07/02 08:34:32;;;;;;;0.5;0.5;;;;;;;32.11;32.73633;943.307;;;;
2022/07/02 08:36:59;;;;;;;0.5;0.5;;;;;;;32.12;31.62207;943.278;;;;
2022/07/02 08:39:45;;;;;;;2.1;0.5;;;;;;;32.69;32.58691;943.2654;;;;
2022/07/02 08:42:05;;;;;;;0.5;0.5;;;;;;;32.41;33.17773;943.3167;;;;
2022/07/02 08:44:33;;;;;;;0.5;0.5;;;;;;;33.26;32.79492;943.3283;;;;
2022/07/02 08:46:59;;;;;;;0.4;0.4;;;;;;;31.67;35.86719;943.3403;;;;
2022/07/02 08:49:28;;;;;;;1.2;0.7;;;;;;;30.44;35.32715;943.3384;;;;
2022/07/02 08:51:59;;;;;;;0.7;0.6;;;;;;;31.27;37.30664;943.2512;;;;
2022/07/02 08:54:18;;;;;;;0.8;0.7;;;;;;;32.15;33.54395;943.2302;;;;
2022/07/02 08:56:46;;;;;;;0.8;0.6;;;;;;;31.47;37.0957;943.1872;;;;
2022/07/02 08:59:11;;;;;;;0.6;0.6;;;;;;;31.58;35.02051;943.196;;;;
2022/07/02 09:01:41;;;;;;;0.8;0.8;;;;;;;29.47;37.99316;943.1859;;;;
2022/07/02 09:04:06;;;;;;;0.5;0.5;;;;;;;29.84;40.4209;943.1886;;;;
2022/07/02 09:06:37;;;;;;;0.6;0.6;;;;;;;31.68;35.53125;943.1495;;;;
2022/07/02 09:09:00;;;;;;;0.5;0.5;;;;;;;30.57;33.82031;943.1233;;;;
2022/07/02 09:11:29;;;;;;;0.9;0.4;;;;;;;29.14;39.49023;943.0402;;;;
2022/07/02 09:13:54;;;;;;;2.5;0.9;;;;;;;31.03;34.88379;943.0094;;;;
2022/07/02 09:16:23;;;;;;;1.6;0.7;;;;;;;31.77;36.56934;942.9995;;;;
2022/07/02 09:18:49;;;;;;;0.5;0.5;;;;;;;32.29;35.52051;943.0309;;;;
2022/07/02 09:21:19;;;;;;;0.7;0.7;;;;;;;32.39;34.97559;943.0002;;;;
2022/07/02 09:23:44;;;;;;;2.5;0.6;;;;;;;32.44;35.04004;943.0039;;;;
2022/07/02 09:26:12;;;;;;;0.6;0.6;;;;;;;33.05;33.95703;943.0097;;;;
2022/07/02 09:28:37;;;;;;;0.7;0.7;;;;;;;31.99;34.84961;942.9506;;;;
2022/07/02 09:31:06;;;;;;;0.7;0.7;;;;;;;30.94;38.19922;942.9361;;;;
2022/07/02 09:33:31;;;;;;;0.9;0.9;;;;;;;31.46;37.42969;942.9724;;;;
2022/07/02 09:35:59;;;;;;;0.8;0.8;;;;;;;31.56;36.86328;942.9734;;;;
2022/07/02 09:38:24;;;;;;;0.7;0.7;;;;;;;30.38;40.9707;942.9973;;;;
2022/07/02 09:40:52;;;;;;;0.6;0.6;;;;;;;28.66;41.14941;942.949;;;;
2022/07/02 09:43:17;;;;;;;0.6;0.6;;;;;;;29.33;41.60254;942.94;;;;
2022/07/02 09:45:47;;;;;;;1.4;0.7;;;;;;;29.32;42.60352;942.972;;;;
2022/07/02 09:48:14;;;;;;;0.6;0.6;;;;;;;29.83;39.97949;943.0056;;;;
2022/07/02 09:50:44;;;;;;;1;0.6;;;;;;;29.76;42.40625;942.902;;;;
2022/07/02 09:53:11;;;;;;;1;0.6;;;;;;;28.61;46.66309;942.9433;;;;
2022/07/02 09:55:36;;;;;;;1.2;0.8;;;;;;;28.05;46.11816;942.925;;;;
2022/07/02 09:58:01;;;;;;;0.5;0.5;;;;;;;28.69;43.92383;942.9399;;;;
2022/07/02 10:00:26;;;;;;;0.4;0.4;;;;;;;28.91;41.80273;942.913;;;;
2022/07/02 10:02:53;;;;;;;0.5;0.5;;;;;;;28.37;45.23535;942.9271;;;;
2022/07/02 10:05:19;;;;;;;1.4;0.7;;;;;;;28.57;43.74512;942.8956;;;;
2022/07/02 10:07:47;;;;;;;1.3;0.8;;;;;;;28.04;45.52246;942.8847;;;;
2022/07/02 10:10:12;;;;;;;0.6;0.6;;;;;;;27.57;46.24707;942.8513;;;;
2022/07/02 10:12:42;;;;;;;1.1;0.6;;;;;;;27.76;46.62207;942.7289;;;;
2022/07/02 10:15:11;;;;;;;0.7;0.7;;;;;;;27.72;45.3252;942.7098;;;;
2022/07/02 10:17:37;;;;;;;1.3;0.8;;;;;;;27.57;45.6416;942.6752;;;;
2022/07/02 10:20:12;;;;;;;1.5;0.9;;;;;;;27.44;47.07617;942.6883;;;;
2022/07/02 10:22:44;;;;;;;0.8;0.8;;;;;;;26.12;53.36035;942.6539;;;;
2022/07/02 10:25:09;;;;;;;0.8;0.8;;;;;;;24.81;53.27539;942.6155;;;;
2022/07/02 10:27:40;;;;;;;0.7;0.7;;;;;;;24.84;54.34082;942.6214;;;;
2022/07/02 10:30:05;;;;;;;0.7;0.7;;;;;;;24.73;55.23535;942.5709;;;;
2022/07/02 10:32:31;;;;;;;1;0.9;;;;;;;24.99;54.62891;942.5967;;;;
2022/07/02 10:34:57;;;;;;;0.7;0.7;;;;;;;24.79;58.26074;942.5154;;;;
2022/07/02 10:37:22;;;;;;;1.1;1;;;;;;;24.81;57.58105;942.5366;;;;
2022/07/02 10:39:49;;;;;;;1;0.8;;;;;;;24.33;62.97363;942.5225;;;;
2022/07/02 10:42:20;;;;;;;0.8;0.8;;;;;;;24.5;60.65137;942.4261;;;;
2022/07/02 10:44:49;;;;;;;0.7;0.7;;;;;;;24.81;55.4707;942.5055;;;;
2022/07/02 10:47:14;;;;;;;0.6;0.6;;;;;;;25.01;55.4707;942.4519;;;;
2022/07/02 10:49:41;;;;;;;2;0.8;;;;;;;25.25;57.76758;942.4208;;;;
2022/07/02 10:52:06;;;;;;;0.7;0.7;;;;;;;25.28;53.70898;942.4009;;;;
2022/07/02 10:54:36;;;;;;;0.7;0.7;;;;;;;25.07;57.07129;942.3758;;;;
2022/07/02 10:57:04;;;;;;;1;0.8;;;;;;;25.13;58.16406;942.2796;;;;
2022/07/02 10:59:33;;;;;;;0.7;0.7;;;;;;;25.3;55.38965;942.3013;;;;
2022/07/02 11:01:58;;;;;;;1;1;;;;;;;25.13;58.35449;942.2573;;;;
2022/07/02 11:04:23;;;;;;;0.9;0.9;;;;;;;24.99;57.87598;942.2634;;;;
2022/07/02 11:06:49;;;;;;;1.1;0.9;;;;;;;24.79;59.95898;942.2939;;;;
2022/07/02 11:09:14;;;;;;;2;0.8;;;;;;;24.71;59.39551;942.2488;;;;
2022/07/02 11:11:40;;;;;;;1.1;0.7;;;;;;;24.69;59.61719;942.183;;;;
2022/07/02 11:14:08;;;;;;;1;0.8;;;;;;;24.93;59.11719;942.2339;;;;
2022/07/02 11:16:34;;;;;;;0.7;0.7;;;;;;;25.14;57.13965;942.1314;;;;
2022/07/02 11:18:58;;;;;;;0.8;0.8;;;;;;;25.39;56.82813;942.2054;;;;
2022/07/02 11:21:26;;;;;;;1;0.7;;;;;;;25.42;56.04199;942.1853;;;;
2022/07/02 11:23:51;;;;;;;0.6;0.6;;;;;;;25.18;58.90332;942.1537;;;;
2022/07/02 11:26:27;;;;;;;0.8;0.8;;;;;;;25.36;57.45117;942.1913;;;;
2022/07/02 11:28:56;;;;;;;1.1;0.7;;;;;;;25.62;58.0166;942.1152;;;;
2022/07/02 11:31:21;;;;;;;0.8;0.8;;;;;;;25.11;59.30664;942.0829;;;;
2022/07/02 11:33:46;;;;;;;1.6;0.9;;;;;;;25.04;60.47754;942.0666;;;;
2022/07/02 11:36:11;;;;;;;1.6;0.7;;;;;;;25.34;56.96289;942.0112;;;;
2022/07/02 11:38:39;;;;;;;0.8;0.8;;;;;;;25.38;56.50977;941.9702;;;;
2022/07/02 11:41:03;;;;;;;3;0.9;;;;;;;25.22;56.74805;941.9833;;;;
2022/07/02 11:43:29;;;;;;;1.8;0.8;;;;;;;25.03;59.07129;941.9445;;;;
2022/07/02 11:45:54;;;;;;;0.8;0.8;;;;;;;25.03;59.00098;941.942;;;;
2022/07/02 11:48:21;;;;;;;0.7;0.7;;;;;;;25.09;58.3252;941.8409;;;;
2022/07/02 11:50:46;;;;;;;0.9;0.9;;;;;;;25.15;56.86914;941.8067;;;;
2022/07/02 11:53:15;;;;;;;0.8;0.8;;;;;;;25.23;56.15918;941.7849;;;;
2022/07/02 11:55:40;;;;;;;0.8;0.8;;;;;;;24.56;61.79199;941.7097;;;;
2022/07/02 11:58:07;;;;;;;0.9;0.9;;;;;;;24.71;60.46973;941.6614;;;;
2022/07/02 12:00:32;;;;;;;1.3;1;;;;;;;24.8;58.60547;941.6744;;;;
2022/07/02 12:03:01;;;;;;;1.2;0.9;;;;;;;24.9;59.40918;941.6844;;;;
2022/07/02 12:05:32;;;;;;;0.7;0.7;;;;;;;25.09;57.58008;941.6113;;;;
2022/07/02 12:07:59;;;;;;;1.3;0.9;;;;;;;25.28;56.82617;941.6522;;;;
2022/07/02 12:10:24;;;;;;;3;0.7;;;;;;;25.06;59.71387;941.587;;;;
2022/07/02 12:12:49;;;;;;;0.8;0.8;;;;;;;25.18;58.01758;941.5349;;;;
2022/07/02 12:15:17;;;;;;;1;0.9;;;;;;;25.28;56.84961;941.5609;;;;
2022/07/02 12:17:43;;;;;;;0.8;0.8;;;;;;;25.37;56.25781;941.5607;;;;
2022/07/02 12:20:12;;;;;;;1;0.7;;;;;;;25.26;58.80762;941.5325;;;;
2022/07/02 12:22:41;;;;;;;2.1;0.8;;;;;;;25.35;57.99316;941.4822;;;;
2022/07/02 12:25:13;;;;;;;1.4;0.9;;;;;;;25.37;57.42871;941.4545;;;;
2022/07/02 12:27:41;;;;;;;2;0.8;;;;;;;25.35;59.45703;941.488;;;;
2022/07/02 12:30:06;;;;;;;1.3;0.6;;;;;;;25.32;56.7959;941.4625;;;;
2022/07/02 12:32:32;;;;;;;0.9;0.9;;;;;;;25.25;58.52344;941.445;;;;
2022/07/02 12:34:56;;;;;;;1.4;0.8;;;;;;;25.05;58.75684;941.3853;;;;
2022/07/02 12:37:27;;;;;;;1.1;0.8;;;;;;;24.97;59.6543;941.4125;;;;
2022/07/02 12:39:53;;;;;;;1.1;0.8;;;;;;;25.1;57.85352;941.4297;;;;
2022/07/02 12:42:18;;;;;;;1;0.8;;;;;;;25.22;58.21289;941.4337;;;;
2022/07/02 12:44:43;;;;;;;0.8;0.8;;;;;;;25.28;57.74707;941.3848;;;;
2022/07/02 12:47:14;;;;;;;1.4;0.9;;;;;;;25.38;56.34277;941.3963;;;;
2022/07/02 12:49:39;;;;;;;1.2;0.7;;;;;;;25.39;58.26953;941.3772;;;;
2022/07/02 12:52:04;;;;;;;1.4;0.8;;;;;;;25.39;57.1709;941.3469;;;;
2022/07/02 12:54:32;;;;;;;2.2;0.8;;;;;;;25.11;61.63184;941.3308;;;;
2022/07/02 12:56:57;;;;;;;1;1;;;;;;;25.21;60.81934;941.2729;;;;
2022/07/02 12:59:25;;;;;;;1.8;0.8;;;;;;;25.36;57.63965;941.2828;;;;
2022/07/02 13:01:57;;;;;;;2.2;0.9;;;;;;;25.39;61.39844;941.2394;;;;
2022/07/02 13:04:25;;;;;;;1.9;1;;;;;;;25.39;58.12793;941.1685;;;;
2022/07/02 13:06:48;;;;;;;3;0.9;;;;;;;25.54;62.31641;941.1328;;;;
2022/07/02 13:09:17;;;;;;;0.7;0.7;;;;;;;25.56;58.76367;941.2177;;;;
2022/07/02 13:11:48;;;;;;;2.3;0.7;;;;;;;25.7;60.16504;941.1329;;;;
2022/07/02 13:14:17;;;;;;;0.6;0.6;;;;;;;25.64;59.61328;941.1621;;;;
2022/07/02 13:16:42;;;;;;;1;0.9;;;;;;;25.51;61.13281;941.1176;;;;
2022/07/02 13:19:09;;;;;;;1.3;0.9;;;;;;;25.49;58.70703;941.0989;;;;
2022/07/02 13:21:34;;;;;;;0.6;0.6;;;;;;;25.6;62.44434;941.0662;;;;
2022/07/02 13:24:03;;;;;;;0.7;0.7;;;;;;;25.59;59.40527;940.9713;;;;
2022/07/02 13:26:28;;;;;;;0.6;0.6;;;;;;;25.22;64.04492;941.1475;;;;
2022/07/02 13:28:55;;;;;;;1.2;0.8;;;;;;;24.89;62.8291;941.1096;;;;
2022/07/02 13:31:20;;;;;;;0.7;0.7;;;;;;;25.26;60.60059;941.1178;;;;
2022/07/02 13:33:47;;;;;;;1.1;0.7;;;;;;;25.37;61.84473;941.0419;;;;
2022/07/02 13:36:12;;;;;;;1.7;0.8;;;;;;;25.45;60.32129;941.0175;;;;
2022/07/02 13:38:38;;;;;;;0.7;0.7;;;;;;;25.48;62.10938;940.9753;;;;
2022/07/02 13:41:03;;;;;;;0.6;0.6;;;;;;;25.58;60.25684;940.9122;;;;
2022/07/02 13:43:33;;;;;;;1.2;0.9;;;;;;;25.59;60.13965;940.9052;;;;
2022/07/02 13:46:04;;;;;;;1.7;0.9;;;;;;;25.62;61.32422;940.8998;;;;
2022/07/02 13:48:29;;;;;;;1.4;0.8;;;;;;;25.61;60.56738;940.9006;;;;
2022/07/02 13:50:56;;;;;;;1.4;0.8;;;;;;;25.62;60.10742;940.8418;;;;
2022/07/02 13:53:21;;;;;;;2.2;0.9;;;;;;;25.63;61.04199;940.8833;;;;
2022/07/02 13:55:46;;;;;;;0.8;0.8;;;;;;;25.66;59.16797;940.8602;;;;
2022/07/02 13:58:14;;;;;;;2.2;0.8;;;;;;;25.71;59.84668;940.8159;;;;
2022/07/02 14:00:39;;;;;;;1;0.8;;;;;;;25.5;61.79297;940.8261;;;;
2022/07/02 14:03:09;;;;;;;1.9;0.8;;;;;;;25.26;63.29395;940.8894;;;;
2022/07/02 14:05:40;;;;;;;1.4;0.8;;;;;;;25.11;61.68066;940.8253;;;;
2022/07/02 14:08:09;;;;;;;0.9;0.9;;;;;;;25.22;60.86914;940.7905;;;;
2022/07/02 14:10:34;;;;;;;1;0.8;;;;;;;25.3;60.96094;940.8069;;;;
2022/07/02 14:13:03;;;;;;;1.6;0.9;;;;;;;25.28;61.20703;940.8137;;;;
2022/07/02 14:15:30;;;;;;;3.1;1.3;;;;;;;25.15;62.44043;940.8166;;;;
2022/07/02 14:17:54;;;;;;;0.9;0.9;;;;;;;25.14;60.61035;940.8331;;;;
2022/07/02 14:20:19;;;;;;;1.1;0.7;;;;;;;25.16;60.1748;940.8536;;;;
2022/07/02 14:22:48;;;;;;;1;0.7;;;;;;;25.12;60.2998;940.8049;;;;
2022/07/02 14:25:14;;;;;;;0.7;0.7;;;;;;;25.15;60.52832;940.7762;;;;
2022/07/02 14:27:43;;;;;;;0.7;0.7;;;;;;;25.27;60.80371;940.7235;;;;
2022/07/02 14:30:18;;;;;;;0.8;0.8;;;;;;;25.33;60.55273;940.6498;;;;
2022/07/02 14:32:47;;;;;;;0.7;0.7;;;;;;;25.36;60.19043;940.7133;;;;
2022/07/02 14:35:20;;;;;;;0.9;0.9;;;;;;;25.46;60.79492;940.7153;;;;
2022/07/02 14:37:51;;;;;;;1.6;0.7;;;;;;;25.43;61.52148;940.6725;;;;
2022/07/02 14:40:24;;;;;;;5.8;1;;;;;;;25.31;61.36523;940.6677;;;;